Time;durP1;ratioP1;P1;durP2;ratioP2;P2;SDS_P1;SDS_P2;PMS_P1;PMS_P2;Temp;Humidity;BMP_temperature;BMP_pressure;BME280_temperature;BME280_humidity;BME280_pressure;Samples;Min_cycle;Max_cycle;Signal;HPM_P1;HPM_P2
2020/12/09 00:01:34;;;;;;;10.73;5.70;;;;;;;;;;5074691;28;20183;-76
2020/12/09 00:04:00;;;;;;;9.50;5.60;;;0.80;1.00;;;;;;5074630;28;20198;-76
2020/12/09 00:06:34;;;;;;;13.45;5.90;;;0.90;1.00;;;;;;5074909;28;20389;-76
2020/12/09 00:09:00;;;;;;;8.55;5.47;;;0.90;1.00;;;;;;5089430;28;20177;-76
2020/12/09 00:11:26;;;;;;;13.32;6.03;;;0.90;1.00;;;;;;5074568;28;20182;-76
2020/12/09 00:13:51;;;;;;;15.00;6.80;;;0.90;1.00;;;;;;5074391;28;20179;-76
2020/12/09 00:16:18;;;;;;;14.10;7.07;;;0.90;1.00;;;;;;5075537;28;20171;-76
2020/12/09 00:18:44;;;;;;;11.38;5.43;;;1.00;1.00;;;;;;5083517;28;20167;-76
2020/12/09 00:21:20;;;;;;;11.57;5.25;;;1.10;1.00;;;;;;5090947;28;20187;-76
2020/12/09 00:23:46;;;;;;;10.63;5.18;;;1.10;1.00;;;;;;5080650;28;20190;-73
2020/12/09 00:26:15;;;;;;;10.07;5.07;;;1.10;1.00;;;;;;5074457;28;20178;-73
2020/12/09 00:28:41;;;;;;;16.52;6.28;;;1.20;1.00;;;;;;5074238;28;20171;-73
2020/12/09 00:31:06;;;;;;;15.82;6.07;;;1.20;1.00;;;;;;5074287;28;20629;-73
2020/12/09 00:33:32;;;;;;;12.70;6.37;;;1.20;1.00;;;;;;5079652;28;20201;-74
2020/12/09 00:35:58;;;;;;;8.87;5.43;;;1.20;1.00;;;;;;5092689;28;20185;-74
2020/12/09 00:38:24;;;;;;;13.90;6.00;;;1.30;1.00;;;;;;5075266;28;20179;-73
2020/12/09 00:40:50;;;;;;;14.15;5.28;;;1.40;1.00;;;;;;5079939;28;20640;-73
2020/12/09 00:43:15;;;;;;;16.73;6.47;;;1.40;1.00;;;;;;5088463;28;20194;-73
2020/12/09 00:45:41;;;;;;;11.97;6.20;;;1.40;1.00;;;;;;5078936;28;20557;-73
2020/12/09 00:48:06;;;;;;;12.33;6.10;;;1.40;1.00;;;;;;5073989;28;20167;-73
2020/12/09 00:50:32;;;;;;;9.70;5.43;;;1.40;1.00;;;;;;5082669;28;20162;-73
2020/12/09 00:52:58;;;;;;;10.00;5.20;;;1.40;1.00;;;;;;5092149;28;20167;-73
2020/12/09 00:55:24;;;;;;;13.20;6.20;;;1.50;1.00;;;;;;5073395;28;20186;-73
2020/12/09 00:57:50;;;;;;;13.18;6.35;;;1.50;1.00;;;;;;5093833;28;20519;-73
2020/12/09 01:00:16;;;;;;;11.97;5.50;;;1.50;1.00;;;;;;5090386;28;20171;-73
2020/12/09 01:02:42;;;;;;;12.35;6.15;;;1.50;1.00;;;;;;5073122;28;20191;-73
2020/12/09 01:05:09;;;;;;;13.67;5.70;;;1.50;1.00;;;;;;5073543;28;20351;-73
2020/12/09 01:07:35;;;;;;;19.95;7.78;;;1.50;1.00;;;;;;5073665;28;20151;-73
2020/12/09 01:10:02;;;;;;;12.38;5.70;;;1.60;1.00;;;;;;5074605;28;20522;-76
2020/12/09 01:12:27;;;;;;;12.27;6.22;;;1.50;1.00;;;;;;5071822;28;20181;-76
2020/12/09 01:14:53;;;;;;;17.40;6.87;;;1.50;1.00;;;;;;5073320;28;20599;-76
2020/12/09 01:17:18;;;;;;;13.07;6.40;;;1.60;1.00;;;;;;5073886;28;20233;-76
2020/12/09 01:19:44;;;;;;;12.10;5.43;;;1.60;1.00;;;;;;5081795;28;20175;-77
2020/12/09 01:22:10;;;;;;;11.80;6.27;;;1.60;1.00;;;;;;5072861;28;20175;-76
2020/12/09 01:24:35;;;;;;;14.97;6.70;;;1.70;1.00;;;;;;5073597;28;20187;-73
2020/12/09 01:27:01;;;;;;;11.70;6.27;;;1.70;1.00;;;;;;5073287;28;20198;-73
2020/12/09 01:29:26;;;;;;;15.03;6.03;;;1.70;1.00;;;;;;5073473;28;20176;-73
2020/12/09 01:32:02;;;;;;;10.67;6.50;;;1.80;1.00;;;;;;5073218;28;20155;-73
2020/12/09 01:34:29;;;;;;;14.50;6.93;;;1.80;1.00;;;;;;5073129;28;20626;-73
2020/12/09 01:36:55;;;;;;;13.70;6.13;;;1.80;1.00;;;;;;5082603;28;20194;-73
2020/12/09 01:39:21;;;;;;;12.77;6.93;;;1.80;1.00;;;;;;5073557;28;20685;-76
2020/12/09 01:41:47;;;;;;;13.37;6.07;;;1.80;1.00;;;;;;5090931;28;20179;-76
2020/12/09 01:44:13;;;;;;;11.07;5.97;;;1.90;1.00;;;;;;5092760;28;20198;-76
2020/12/09 01:46:39;;;;;;;10.40;6.00;;;1.90;1.00;;;;;;5082508;28;20220;-76
2020/12/09 01:49:05;;;;;;;20.65;6.55;;;2.00;1.00;;;;;;5072700;28;20412;-76
2020/12/09 01:51:31;;;;;;;12.47;6.70;;;2.00;1.00;;;;;;5073044;28;20159;-76
2020/12/09 01:53:58;;;;;;;15.43;6.57;;;2.00;1.00;;;;;;5073362;28;20397;-76
2020/12/09 01:56:24;;;;;;;12.32;6.50;;;1.90;1.00;;;;;;5072815;28;20178;-76
2020/12/09 01:58:51;;;;;;;14.40;6.07;;;2.00;1.00;;;;;;5077479;28;20309;-77
2020/12/09 02:01:18;;;;;;;11.02;6.53;;;2.00;1.00;;;;;;5072938;28;20207;-76
2020/12/09 02:03:45;;;;;;;12.30;5.40;;;2.00;1.00;;;;;;5072902;28;20553;-76
2020/12/09 02:06:10;;;;;;;14.88;6.50;;;2.00;1.00;;;;;;5072907;28;20212;-76
2020/12/09 02:08:36;;;;;;;13.07;6.27;;;2.00;1.00;;;;;;5079377;28;20570;-75
2020/12/09 02:11:03;;;;;;;12.53;6.23;;;2.10;1.00;;;;;;5079930;28;20175;-73
2020/12/09 02:13:30;;;;;;;17.45;5.93;;;2.00;1.00;;;;;;5076741;28;20187;-73
2020/12/09 02:16:00;;;;;;;17.77;6.70;;;2.00;1.00;;;;;;5079200;28;20175;-73
2020/12/09 02:18:27;;;;;;;12.55;6.95;;;2.00;1.00;;;;;;5077745;28;20609;-74
2020/12/09 02:20:53;;;;;;;18.83;7.35;;;1.90;1.00;;;;;;5096044;28;20172;-73
2020/12/09 02:23:18;;;;;;;11.73;7.03;;;1.90;1.00;;;;;;5092979;28;20277;-73
2020/12/09 02:25:47;;;;;;;12.03;5.77;;;1.90;1.00;;;;;;5077116;28;20397;-73
2020/12/09 02:28:13;;;;;;;22.45;6.43;;;1.90;1.00;;;;;;5076587;28;20171;-73
2020/12/09 02:30:39;;;;;;;14.47;6.43;;;1.90;1.00;;;;;;5075065;28;20182;-73
2020/12/09 02:33:04;;;;;;;13.23;5.95;;;1.90;1.00;;;;;;5076609;28;20797;-73
2020/12/09 02:35:30;;;;;;;11.30;5.77;;;1.90;1.00;;;;;;5076645;28;20209;-73
2020/12/09 02:37:56;;;;;;;9.73;5.50;;;1.90;1.00;;;;;;5076439;28;20228;-73
2020/12/09 02:40:22;;;;;;;10.37;5.50;;;1.90;1.00;;;;;;5081420;28;20182;-73
2020/12/09 02:42:48;;;;;;;10.27;5.18;;;2.00;1.00;;;;;;5090972;28;20242;-73
2020/12/09 02:45:14;;;;;;;12.03;6.33;;;2.00;1.00;;;;;;5076229;28;20662;-74
2020/12/09 02:47:40;;;;;;;19.05;6.38;;;2.00;1.00;;;;;;5076151;28;20466;-73
2020/12/09 02:50:05;;;;;;;13.80;5.80;;;2.00;1.00;;;;;;5076103;28;20167;-73
2020/12/09 02:52:31;;;;;;;12.43;5.97;;;;;;;;;;5084730;28;20263;-73
2020/12/09 02:54:57;;;;;;;9.70;5.47;;;1.90;1.00;;;;;;5094531;28;20679;-76
2020/12/09 02:57:23;;;;;;;13.73;6.60;;;1.90;1.00;;;;;;5092371;28;20420;-76
2020/12/09 02:59:48;;;;;;;14.03;5.97;;;2.00;1.00;;;;;;5075981;28;20238;-76
2020/12/09 03:02:14;;;;;;;13.80;6.90;;;1.90;1.00;;;;;;5076133;28;20169;-76
2020/12/09 03:04:39;;;;;;;12.53;6.50;;;1.90;1.00;;;;;;5075720;28;20195;-76
2020/12/09 03:07:05;;;;;;;11.97;6.27;;;2.00;1.00;;;;;;5075908;28;20171;-76
2020/12/09 03:09:31;;;;;;;16.37;8.07;;;1.90;1.00;;;;;;5076053;28;20175;-73
2020/12/09 03:11:56;;;;;;;15.57;6.33;;;1.90;1.00;;;;;;5080770;28;20615;-73
2020/12/09 03:14:22;;;;;;;14.80;6.90;;;1.90;1.00;;;;;;5075802;28;20178;-73
2020/12/09 03:16:48;;;;;;;14.47;7.20;;;2.00;1.00;;;;;;5080053;28;20599;-73
2020/12/09 03:19:13;;;;;;;15.60;7.00;;;2.00;1.00;;;;;;5095941;28;20192;-74
2020/12/09 03:21:43;;;;;;;16.20;6.73;;;2.00;1.00;;;;;;5075781;28;20191;-73
2020/12/09 03:24:10;;;;;;;13.05;6.38;;;2.10;1.00;;;;;;5075311;28;20225;-73
2020/12/09 03:26:36;;;;;;;14.57;6.93;;;2.10;1.00;;;;;;5075801;28;20187;-73
2020/12/09 03:29:01;;;;;;;14.47;7.63;;;2.10;1.00;;;;;;5075550;28;20194;-73
2020/12/09 03:31:27;;;;;;;11.03;6.30;;;2.00;1.00;;;;;;5075891;28;20416;-74
2020/12/09 03:33:52;;;;;;;9.20;5.10;;;2.00;1.00;;;;;;5075189;28;20179;-74
2020/12/09 03:36:18;;;;;;;9.00;4.53;;;2.00;1.00;;;;;;5075679;28;20179;-73
2020/12/09 03:38:44;;;;;;;17.10;7.47;;;2.00;1.00;;;;;;5082901;28;20545;-73
2020/12/09 03:41:10;;;;;;;15.33;6.37;;;;;;;;;;5092923;28;20249;-73
2020/12/09 03:43:35;;;;;;;11.90;5.83;;;2.10;1.00;;;;;;5075145;28;20198;-73
2020/12/09 03:46:01;;;;;;;16.33;5.70;;;4.70;1.00;;;;;;5090531;28;20452;-74
2020/12/09 03:48:27;;;;;;;15.70;7.23;;;2.20;1.00;;;;;;5078790;28;20194;-73
2020/12/09 03:50:52;;;;;;;17.77;7.20;;;2.20;1.00;;;;;;5075061;28;20619;-74
2020/12/09 03:53:18;;;;;;;15.87;6.43;;;2.10;1.00;;;;;;5090478;28;20174;-73
2020/12/09 03:55:43;;;;;;;11.87;5.77;;;2.20;1.00;;;;;;5095609;28;20332;-76
2020/12/09 03:58:09;;;;;;;15.27;6.07;;;2.20;1.00;;;;;;5095421;28;20158;-76
2020/12/09 04:00:35;;;;;;;14.20;6.47;;;2.20;1.00;;;;;;5081263;28;20186;-76
2020/12/09 04:03:00;;;;;;;13.97;6.87;;;2.20;1.00;;;;;;5082108;28;20621;-77
2020/12/09 04:05:26;;;;;;;10.10;5.40;;;2.10;1.00;;;;;;5093327;28;20198;-76
2020/12/09 04:07:51;;;;;;;15.30;7.40;;;2.10;1.00;;;;;;5095076;28;20284;-76
2020/12/09 04:10:18;;;;;;;15.00;5.90;;;2.10;1.00;;;;;;5094981;28;20166;-77
2020/12/09 04:12:43;;;;;;;14.52;6.53;;;2.00;1.00;;;;;;5077468;28;20246;-77
2020/12/09 04:15:10;;;;;;;19.50;6.33;;;2.00;1.00;;;;;;5075189;28;20560;-77
2020/12/09 04:17:37;;;;;;;8.20;4.90;;;2.00;1.00;;;;;;5074694;28;20169;-77
2020/12/09 04:20:04;;;;;;;13.70;5.60;;;2.10;1.00;;;;;;5075069;28;20175;-76
2020/12/09 04:22:30;;;;;;;17.08;6.55;;;2.10;1.00;;;;;;5074272;28;20246;-77
2020/12/09 04:24:55;;;;;;;10.20;6.10;;;2.10;1.00;;;;;;5075879;28;20278;-74
2020/12/09 04:27:21;;;;;;;14.03;6.60;;;2.10;1.00;;;;;;5078345;28;20499;-73
2020/12/09 04:29:46;;;;;;;17.47;7.50;;;2.10;1.00;;;;;;5094383;28;20274;-73
2020/12/09 04:32:12;;;;;;;11.13;6.67;;;2.10;1.00;;;;;;5094634;28;20161;-73
2020/12/09 04:34:38;;;;;;;17.43;7.47;;;2.10;1.00;;;;;;5092262;28;20671;-73
2020/12/09 04:37:04;;;;;;;11.67;5.80;;;2.10;1.00;;;;;;5094338;28;20517;-73
2020/12/09 04:39:30;;;;;;;23.25;6.25;;;2.00;1.00;;;;;;5092810;28;20159;-73
2020/12/09 04:41:56;;;;;;;16.53;6.73;;;2.00;1.00;;;;;;5074138;28;20292;-76
2020/12/09 04:44:23;;;;;;;12.93;6.07;;;2.00;1.00;;;;;;5075031;28;20720;-76
2020/12/09 04:46:51;;;;;;;12.45;5.47;;;2.00;1.00;;;;;;5074087;28;20143;-76
2020/12/09 04:49:22;;;;;;;10.80;5.20;;;2.00;1.00;;;;;;5073951;28;20641;-76
2020/12/09 04:52:00;;;;;;;10.98;6.05;;;2.10;1.00;;;;;;5072736;28;20178;-77
2020/12/09 04:54:39;;;;;;;11.48;6.28;;;2.10;1.00;;;;;;5082630;28;20710;-76
2020/12/09 04:57:24;;;;;;;10.55;6.45;;;2.10;1.00;;;;;;5094333;28;20214;-73
2020/12/09 04:59:59;;;;;;;8.43;5.38;;;2.00;1.00;;;;;;5092397;28;20288;-73
2020/12/09 05:02:48;;;;;;;10.25;5.55;;;2.00;1.00;;;;;;5094045;28;20244;-73
2020/12/09 05:05:20;;;;;;;14.95;6.63;;;2.00;1.00;;;;;;5083862;28;20241;-73
2020/12/09 05:07:48;;;;;;;8.75;5.63;;;2.00;1.00;;;;;;5073614;28;20159;-73
2020/12/09 05:10:22;;;;;;;13.60;7.00;;;2.00;1.00;;;;;;5080629;28;20171;-77
2020/12/09 05:12:53;;;;;;;12.48;6.32;;;2.00;1.00;;;;;;5073369;28;20250;-77
2020/12/09 05:15:25;;;;;;;13.68;6.10;;;2.00;1.00;;;;;;5074735;28;20179;-77
2020/12/09 05:18:09;;;;;;;15.63;7.07;;;2.00;1.00;;;;;;5073583;28;20281;-76
2020/12/09 05:20:40;;;;;;;10.75;6.32;;;2.00;1.00;;;;;;5089127;28;20579;-76
2020/12/09 05:23:07;;;;;;;25.20;7.53;;;1.90;1.00;;;;;;5073134;28;20221;-76
2020/12/09 05:25:34;;;;;;;10.05;5.88;;;1.90;1.00;;;;;;5073796;28;20173;-77
2020/12/09 05:28:00;;;;;;;14.38;7.07;;;1.90;1.00;;;;;;5081826;28;20227;-77
2020/12/09 05:30:51;;;;;;;13.67;6.57;;;1.90;1.00;;;;;;5093275;28;20170;-76
2020/12/09 05:33:29;;;;;;;15.18;6.68;;;1.90;1.00;;;;;;5082793;28;20806;-76
2020/12/09 05:36:00;;;;;;;14.77;7.30;;;1.90;1.00;;;;;;5076992;28;20217;-76
2020/12/09 05:38:26;;;;;;;13.27;6.07;;;1.90;1.00;;;;;;5074169;28;20530;-76
2020/12/09 05:40:53;;;;;;;20.53;6.30;;;1.80;1.00;;;;;;5078511;28;20170;-76
2020/12/09 05:43:19;;;;;;;12.18;5.85;;;1.80;1.00;;;;;;5072698;28;20515;-76
2020/12/09 05:45:44;;;;;;;16.40;6.70;;;1.80;1.00;;;;;;5072929;28;20254;-76
2020/12/09 05:48:20;;;;;;;12.87;6.30;;;1.80;1.00;;;;;;5088120;28;20174;-77
2020/12/09 05:50:52;;;;;;;12.85;5.65;;;1.90;1.00;;;;;;5078393;28;20166;-76
2020/12/09 05:53:29;;;;;;;12.82;6.10;;;1.80;1.00;;;;;;5106676;28;20686;-77
2020/12/09 05:56:22;;;;;;;14.77;6.40;;;1.80;1.00;;;;;;5095801;28;20198;-73
2020/12/09 05:58:49;;;;;;;20.55;6.65;;;1.80;1.00;;;;;;5082757;28;20182;-73
2020/12/09 06:01:22;;;;;;;12.50;6.78;;;1.80;1.00;;;;;;5078451;28;20197;-73
2020/12/09 06:03:53;;;;;;;23.63;7.25;;;1.80;1.00;;;;;;5072456;28;20195;-73
2020/12/09 06:06:29;;;;;;;12.65;6.38;;;1.80;1.00;;;;;;5072666;28;20175;-73
2020/12/09 06:08:56;;;;;;;16.10;6.25;;;1.80;1.00;;;;;;5075039;28;20167;-73
2020/12/09 06:11:27;;;;;;;23.60;8.00;;;1.80;1.00;;;;;;5073639;28;20620;-73
2020/12/09 06:13:53;;;;;;;14.45;7.25;;;1.80;1.00;;;;;;5072495;28;20183;-73
2020/12/09 06:16:20;;;;;;;11.47;6.10;;;1.70;1.00;;;;;;5072726;28;20163;-73
2020/12/09 06:18:53;;;;;;;11.48;5.65;;;1.70;1.00;;;;;;5091707;28;20205;-73
2020/12/09 06:21:19;;;;;;;11.18;6.00;;;1.70;1.00;;;;;;5084111;28;20179;-73
2020/12/09 06:23:48;;;;;;;17.40;7.32;;;1.70;1.00;;;;;;5089265;28;20202;-73
2020/12/09 06:26:14;;;;;;;16.83;7.40;;;1.70;1.00;;;;;;5076491;28;20186;-76
2020/12/09 06:28:50;;;;;;;17.17;7.47;;;1.70;1.00;;;;;;5072861;28;20197;-77
2020/12/09 06:31:20;;;;;;;15.13;6.40;;;1.70;1.00;;;;;;5083361;28;20544;-77
2020/12/09 06:33:54;;;;;;;15.73;6.30;;;1.60;1.00;;;;;;5080538;28;20186;-76
2020/12/09 06:36:23;;;;;;;15.27;7.03;;;1.50;1.00;;;;;;5082184;28;20194;-76
2020/12/09 06:39:07;;;;;;;12.65;5.75;;;1.40;1.00;;;;;;5075090;28;20166;-76
2020/12/09 06:41:37;;;;;;;17.23;5.30;;;1.40;1.00;;;;;;5091597;28;20182;-76
2020/12/09 06:44:07;;;;;;;14.00;6.72;;;1.30;1.00;;;;;;5088233;28;20199;-76
2020/12/09 06:46:41;;;;;;;11.75;5.95;;;1.30;1.00;;;;;;5085231;28;20177;-76
2020/12/09 06:49:29;;;;;;;12.70;6.07;;;1.20;1.00;;;;;;5092477;28;20512;-76
2020/12/09 06:52:22;;;;;;;11.70;5.90;;;1.20;1.00;;;;;;5092475;28;20721;-76
2020/12/09 06:54:48;;;;;;;11.30;6.18;;;1.10;1.00;;;;;;4995038;28;20548;-76
2020/12/09 06:57:29;;;;;;;17.42;7.22;;;1.00;1.00;;;;;;4992486;28;20248;-73
2020/12/09 07:00:10;;;;;;;12.77;6.43;;;0.90;1.00;;;;;;4992443;28;20405;-73
2020/12/09 07:02:36;;;;;;;12.23;6.35;;;;;;;;;;4997296;28;20204;-74
2020/12/09 07:05:03;;;;;;;13.15;5.80;;;0.90;1.00;;;;;;5013501;28;20278;-73
2020/12/09 07:07:33;;;;;;;14.82;7.00;;;0.80;1.00;;;;;;5009112;28;20220;-73
2020/12/09 07:10:01;;;;;;;16.35;7.35;;;0.80;1.00;;;;;;4994192;28;20731;-73
2020/12/09 07:12:27;;;;;;;12.32;5.80;;;0.80;1.00;;;;;;4994707;28;20173;-73
2020/12/09 07:14:55;;;;;;;13.77;6.50;;;0.80;1.00;;;;;;5008837;28;20173;-73
2020/12/09 07:17:26;;;;;;;10.70;5.45;;;0.70;1.00;;;;;;5013042;28;20200;-73
2020/12/09 07:19:52;;;;;;;16.88;5.65;;;0.70;1.00;;;;;;5001172;28;20193;-74
2020/12/09 07:22:18;;;;;;;16.33;6.18;;;0.60;1.00;;;;;;4998288;28;20209;-73
2020/12/09 07:24:45;;;;;;;19.00;7.20;;;0.60;1.00;;;;;;4994083;28;20676;-73
2020/12/09 07:27:12;;;;;;;18.10;6.63;;;0.50;1.00;;;;;;5003580;28;20242;-76
2020/12/09 07:29:42;;;;;;;15.13;6.72;;;0.50;1.00;;;;;;5002824;28;20197;-76
2020/12/09 07:34:33;;;;;;;13.10;7.47;;;0.50;1.00;;;;;;5075476;28;20638;-76
2020/12/09 07:36:59;;;;;;;9.00;5.72;;;0.40;1.00;;;;;;5076117;28;20179;-76
2020/12/09 07:39:33;;;;;;;19.57;6.47;;;0.40;1.00;;;;;;5076304;28;20190;-76
2020/12/09 07:42:00;;;;;;;13.93;6.25;;;0.30;1.00;;;;;;5075714;28;20151;-76
2020/12/09 07:44:26;;;;;;;19.50;7.22;;;0.40;1.00;;;;;;5075141;28;20699;-79
2020/12/09 07:46:57;;;;;;;21.00;6.32;;;0.40;1.00;;;;;;5075315;28;20246;-77
2020/12/09 07:49:24;;;;;;;15.85;5.95;;;0.50;1.00;;;;;;5078782;28;20167;-76
2020/12/09 07:51:52;;;;;;;12.35;6.47;;;0.50;1.00;;;;;;5075147;28;20174;-76
2020/12/09 07:54:18;;;;;;;13.27;5.57;;;0.50;1.00;;;;;;5075251;28;20648;-76
2020/12/09 07:56:44;;;;;;;16.08;6.20;;;;;;;;;;5075344;28;20200;-76
2020/12/09 07:59:14;;;;;;;18.23;7.30;;;0.50;1.00;;;;;;5075110;28;20242;-76
2020/12/09 08:01:40;;;;;;;14.70;5.32;;;0.60;1.00;;;;;;5075085;28;20190;-76
2020/12/09 08:04:07;;;;;;;19.92;6.47;;;0.60;1.00;;;;;;5079257;28;20616;-76
2020/12/09 08:06:36;;;;;;;10.05;5.80;;;0.60;1.00;;;;;;5075016;28;20213;-76
2020/12/09 08:09:17;;;;;;;18.70;7.78;;;0.70;1.00;;;;;;5086359;28;20220;-76
2020/12/09 08:11:50;;;;;;;21.95;6.35;;;0.70;1.00;;;;;;5078047;28;20186;-75
2020/12/09 08:14:16;;;;;;;7.68;5.75;;;0.70;1.00;;;;;;5075602;28;20229;-76
2020/12/09 08:16:42;;;;;;;17.93;6.87;;;0.70;1.00;;;;;;5074812;28;20683;-76
2020/12/09 08:19:09;;;;;;;10.60;5.80;;;0.70;1.00;;;;;;5086016;28;20163;-77
2020/12/09 08:21:37;;;;;;;12.23;5.72;;;0.80;1.00;;;;;;5087494;28;20220;-76
2020/12/09 08:24:13;;;;;;;17.13;7.10;;;0.90;1.00;;;;;;5094641;28;20269;-76
2020/12/09 08:26:42;;;;;;;11.05;6.18;;;0.90;1.00;;;;;;5094512;28;20169;-76
2020/12/09 08:29:15;;;;;;;14.65;6.20;;;1.00;1.00;;;;;;5094464;28;20179;-73
2020/12/09 08:31:41;;;;;;;9.40;4.75;;;1.00;1.00;;;;;;5094618;28;20614;-73
2020/12/09 08:34:14;;;;;;;13.83;7.00;;;1.10;1.00;;;;;;5092351;28;20257;-73
2020/12/09 08:36:43;;;;;;;14.07;6.70;;;1.10;1.00;;;;;;5094912;28;20178;-73
2020/12/09 08:39:08;;;;;;;15.65;6.20;;;1.20;1.00;;;;;;5094468;28;20195;-73
2020/12/09 08:41:36;;;;;;;15.23;6.63;;;1.30;1.00;;;;;;5081661;28;20653;-73
2020/12/09 08:44:04;;;;;;;11.85;6.38;;;1.40;1.00;;;;;;5090185;28;20199;-77
2020/12/09 08:46:30;;;;;;;11.18;6.43;;;1.50;1.00;;;;;;5074168;28;20190;-77
2020/12/09 08:48:56;;;;;;;13.35;7.25;;;1.50;1.00;;;;;;5078509;28;20174;-77
2020/12/09 08:51:27;;;;;;;17.30;6.50;;;1.60;1.00;;;;;;5087271;28;20167;-76
2020/12/09 08:53:53;;;;;;;16.20;6.93;;;1.70;1.00;;;;;;5076147;28;20246;-77
2020/12/09 08:56:30;;;;;;;20.20;7.38;;;1.70;1.00;;;;;;5083639;28;20201;-77
2020/12/09 08:58:57;;;;;;;13.27;6.38;;;1.80;1.00;;;;;;5088518;28;20189;-76
2020/12/09 09:01:23;;;;;;;15.70;6.55;;;1.90;1.00;;;;;;5082674;28;20167;-77
2020/12/09 09:03:54;;;;;;;16.60;7.20;;;1.30;1.00;;;;;;5082179;28;20661;-77
2020/12/09 09:06:25;;;;;;;15.82;7.43;;;2.00;1.00;;;;;;5073689;28;20389;-76
2020/12/09 09:08:51;;;;;;;16.15;7.68;;;2.20;1.00;;;;;;5073638;28;20163;-77
2020/12/09 09:11:24;;;;;;;14.00;7.13;;;2.20;1.00;;;;;;5074583;28;20503;-77
2020/12/09 09:13:53;;;;;;;15.75;7.35;;;2.30;1.00;;;;;;5073758;28;20627;-73
2020/12/09 09:16:20;;;;;;;22.63;8.70;;;2.30;1.00;;;;;;5073129;28;20175;-74
2020/12/09 09:18:45;;;;;;;16.73;7.82;;;2.40;1.00;;;;;;5088167;28;20171;-74
2020/12/09 09:21:11;;;;;;;15.70;7.73;;;;;;;;;;5082729;28;20187;-73
2020/12/09 09:23:37;;;;;;;18.37;7.60;;;2.70;1.00;;;;;;5075420;28;20684;-74
2020/12/09 09:26:03;;;;;;;20.53;8.80;;;;;;;;;;5078708;28;20424;-75
2020/12/09 09:28:28;;;;;;;20.47;7.90;;;2.80;1.00;;;;;;5081651;28;20208;-79
2020/12/09 09:30:54;;;;;;;15.53;7.80;;;2.90;1.00;;;;;;5072193;28;20417;-73
2020/12/09 09:33:20;;;;;;;25.30;10.13;;;3.00;1.00;;;;;;5092280;28;20184;-74
2020/12/09 09:35:45;;;;;;;19.07;9.47;;;3.00;1.00;;;;;;5083333;28;20217;-74
2020/12/09 09:38:11;;;;;;;27.17;10.43;;;3.10;1.00;;;;;;5077618;28;20167;-74
2020/12/09 09:40:36;;;;;;;17.67;9.20;;;3.20;1.00;;;;;;5078176;28;20186;-74
2020/12/09 09:43:02;;;;;;;19.50;9.13;;;3.20;1.00;;;;;;5078950;28;20171;-74
2020/12/09 09:45:28;;;;;;;21.17;8.80;;;3.30;1.00;;;;;;5078759;28;20201;-74
2020/12/09 09:47:53;;;;;;;28.00;10.97;;;3.30;1.00;;;;;;5078152;28;20192;-73
2020/12/09 09:50:20;;;;;;;25.63;9.73;;;3.40;1.00;;;;;;5077024;28;20528;-74
2020/12/09 09:52:46;;;;;;;24.42;10.13;;;3.40;1.00;;;;;;5072455;28;20163;-74
2020/12/09 09:55:11;;;;;;;25.63;9.23;;;3.50;1.00;;;;;;5083486;28;20254;-74
2020/12/09 09:57:37;;;;;;;32.00;10.70;;;3.50;1.00;;;;;;5085859;28;20180;-73
2020/12/09 10:00:06;;;;;;;21.53;10.80;;;3.60;1.00;;;;;;5086481;28;20246;-76
2020/12/09 10:02:32;;;;;;;25.75;10.02;;;3.60;1.00;;;;;;5074077;28;20174;-77
2020/12/09 10:04:58;;;;;;;24.10;10.50;;;3.70;1.00;;;;;;5084796;28;20198;-77
2020/12/09 10:07:24;;;;;;;21.23;10.10;;;3.80;1.00;;;;;;5092979;28;20519;-76
2020/12/09 10:09:49;;;;;;;22.30;11.07;;;3.80;1.00;;;;;;5091686;28;20159;-77
2020/12/09 10:12:15;;;;;;;28.80;11.07;;;3.90;1.00;;;;;;5072443;28;20190;-77
2020/12/09 10:14:40;;;;;;;24.03;11.50;;;4.00;1.00;;;;;;5081156;28;20170;-74
2020/12/09 10:17:06;;;;;;;24.43;11.40;;;4.10;1.00;;;;;;5092807;28;20614;-73
2020/12/09 10:19:31;;;;;;;24.00;11.03;;;4.20;1.00;;;;;;5075824;28;20182;-74
2020/12/09 10:22:01;;;;;;;24.40;11.30;;;4.30;1.00;;;;;;5075217;28;20183;-73
2020/12/09 10:24:28;;;;;;;27.02;11.43;;;4.40;1.00;;;;;;5079223;28;20206;-73
2020/12/09 10:26:53;;;;;;;24.25;11.23;;;4.50;1.00;;;;;;5083188;28;20653;-73
2020/12/09 10:29:19;;;;;;;24.30;10.93;;;4.70;1.00;;;;;;5088536;28;20182;-73
2020/12/09 10:31:46;;;;;;;28.13;11.43;;;4.70;1.00;;;;;;5086778;28;20433;-74
2020/12/09 10:34:15;;;;;;;26.13;12.35;;;4.90;1.00;;;;;;5072827;28;20163;-74
2020/12/09 10:36:48;;;;;;;24.75;10.98;;;4.90;1.00;;;;;;5079392;28;20210;-74
2020/12/09 10:39:14;;;;;;;25.20;11.43;;;5.00;1.00;;;;;;5076469;28;20163;-74
2020/12/09 10:41:40;;;;;;;23.70;11.45;;;5.20;1.00;;;;;;5091892;28;20544;-74
2020/12/09 10:44:07;;;;;;;27.73;11.52;;;5.20;1.00;;;;;;5096964;28;20571;-77
2020/12/09 10:46:35;;;;;;;24.30;10.55;;;5.20;1.00;;;;;;5075734;28;20189;-77
2020/12/09 10:49:03;;;;;;;24.20;10.75;;;5.30;1.00;;;;;;5076185;28;20499;-77
2020/12/09 10:51:29;;;;;;;23.95;10.85;;;5.30;1.00;;;;;;5095036;28;20258;-77
2020/12/09 10:53:56;;;;;;;23.35;11.20;;;5.30;1.00;;;;;;5084801;28;20228;-77
2020/12/09 10:56:29;;;;;;;25.02;11.25;;;5.30;1.00;;;;;;5076031;28;20194;-77
2020/12/09 10:58:56;;;;;;;31.60;10.85;;;5.40;1.00;;;;;;5076198;28;20168;-76
2020/12/09 11:01:23;;;;;;;25.00;11.98;;;5.40;1.00;;;;;;5076027;28;20241;-77
2020/12/09 11:03:48;;;;;;;26.15;12.20;;;5.50;1.00;;;;;;5076794;28;20202;-77
2020/12/09 11:06:15;;;;;;;24.40;11.53;;;5.60;1.00;;;;;;5075912;28;20171;-77
2020/12/09 11:08:41;;;;;;;33.22;12.65;;;5.60;1.00;;;;;;5075880;28;20167;-77
2020/12/09 11:11:07;;;;;;;25.50;12.27;;;5.70;1.00;;;;;;5084856;28;20166;-77
2020/12/09 11:13:33;;;;;;;30.33;12.47;;;5.70;1.00;;;;;;5076720;28;20421;-76
2020/12/09 11:15:58;;;;;;;31.53;13.63;;;5.80;1.00;;;;;;5075717;28;20619;-73
2020/12/09 11:18:25;;;;;;;28.73;12.50;;;5.80;1.00;;;;;;5075697;28;20416;-74
2020/12/09 11:20:51;;;;;;;24.57;10.90;;;5.90;1.00;;;;;;5078663;28;20166;-73
2020/12/09 11:23:17;;;;;;;24.93;11.77;;;6.00;1.00;;;;;;5089388;28;20429;-73
2020/12/09 11:25:43;;;;;;;30.33;13.57;;;6.00;1.00;;;;;;5093552;28;20186;-73
2020/12/09 11:28:09;;;;;;;28.93;12.63;;;6.10;1.00;;;;;;5095522;28;20162;-76
2020/12/09 11:30:34;;;;;;;31.83;12.20;;;6.20;1.00;;;;;;5081632;28;20435;-79
2020/12/09 11:33:00;;;;;;;25.03;12.27;;;6.30;1.00;;;;;;5079314;28;20482;-75
2020/12/09 11:35:26;;;;;;;29.40;12.17;;;6.40;1.00;;;;;;5073768;28;20193;-72
2020/12/09 11:37:54;;;;;;;26.43;12.23;;;6.40;1.00;;;;;;5078969;28;20194;-73
2020/12/09 11:40:23;;;;;;;27.60;11.47;;;6.40;1.00;;;;;;5083581;28;20166;-74
2020/12/09 11:42:49;;;;;;;24.53;10.97;;;;;;;;;;5095165;28;20412;-74
2020/12/09 11:45:15;;;;;;;22.47;11.20;;;6.50;1.00;;;;;;5079898;28;20460;-74
2020/12/09 11:47:40;;;;;;;34.73;11.73;;;6.50;1.00;;;;;;5075342;28;20468;-74
2020/12/09 11:50:06;;;;;;;21.33;10.83;;;6.50;1.00;;;;;;5094995;28;20170;-75
2020/12/09 11:52:32;;;;;;;28.63;12.57;;;6.60;1.00;;;;;;5075862;28;20172;-75
2020/12/09 11:54:57;;;;;;;27.57;11.40;;;6.60;1.00;;;;;;5074974;28;20194;-75
2020/12/09 11:57:23;;;;;;;22.97;11.70;;;6.50;1.00;;;;;;5074898;28;20507;-75
2020/12/09 11:59:49;;;;;;;26.57;12.67;;;6.50;1.00;;;;;;5075472;28;20217;-79
2020/12/09 12:02:14;;;;;;;25.63;11.90;;;6.50;1.00;;;;;;5074760;28;20175;-77
2020/12/09 12:04:41;;;;;;;23.40;10.60;;;6.50;1.00;;;;;;5091935;28;20440;-78
2020/12/09 12:07:07;;;;;;;24.13;12.43;;;6.40;1.00;;;;;;5081265;28;20162;-77
2020/12/09 12:09:32;;;;;;;29.07;12.47;;;6.40;1.00;;;;;;5074665;28;20397;-77
2020/12/09 12:11:58;;;;;;;22.60;11.47;;;6.40;1.00;;;;;;5075161;28;20258;-78
2020/12/09 12:14:23;;;;;;;28.17;11.73;;;6.40;1.00;;;;;;5094386;28;20522;-77
2020/12/09 12:16:49;;;;;;;25.23;12.00;;;6.40;1.00;;;;;;5093481;28;20170;-77
2020/12/09 12:19:17;;;;;;;23.27;11.30;;;6.40;1.00;;;;;;5080635;28;20191;-77
2020/12/09 12:21:43;;;;;;;25.50;12.77;;;6.40;1.00;;;;;;5085224;28;20269;-76
2020/12/09 12:24:08;;;;;;;29.00;12.60;;;6.40;1.00;;;;;;5077278;28;20992;-77
2020/12/09 12:26:34;;;;;;;29.73;11.53;;;6.40;1.00;;;;;;5081354;28;20439;-76
2020/12/09 12:29:00;;;;;;;25.13;11.70;;;6.40;1.00;;;;;;5089658;28;20647;-76
2020/12/09 12:31:25;;;;;;;23.63;11.93;;;6.40;1.00;;;;;;5086679;28;20186;-73
2020/12/09 12:33:51;;;;;;;27.03;11.77;;;6.40;1.00;;;;;;5078530;28;20258;-73
2020/12/09 12:36:20;;;;;;;21.77;11.13;;;6.40;1.00;;;;;;5074691;28;20223;-73
2020/12/09 12:38:46;;;;;;;26.80;12.17;;;6.50;1.00;;;;;;5074030;28;20218;-74
2020/12/09 12:41:12;;;;;;;25.17;10.80;;;6.50;1.00;;;;;;5073688;28;20924;-73
2020/12/09 12:43:39;;;;;;;25.10;11.70;;;6.60;1.00;;;;;;5074835;28;20465;-73
2020/12/09 12:46:04;;;;;;;27.13;12.70;;;6.60;1.00;;;;;;5074118;28;20436;-73
2020/12/09 12:48:30;;;;;;;23.00;11.33;;;6.60;1.00;;;;;;5076551;28;20424;-73
2020/12/09 12:50:56;;;;;;;26.27;11.90;;;6.60;1.00;;;;;;5093606;28;20206;-73
2020/12/09 12:53:21;;;;;;;24.13;11.60;;;6.60;1.00;;;;;;5086733;28;20186;-73
2020/12/09 12:55:47;;;;;;;24.67;12.33;;;7.20;1.00;;;;;;5073788;28;20186;-73
2020/12/09 12:58:12;;;;;;;24.07;11.27;;;6.60;1.00;;;;;;5076871;28;20629;-73
2020/12/09 13:00:38;;;;;;;30.47;12.70;;;6.70;1.00;;;;;;5107679;28;20168;-76
2020/12/09 13:03:07;;;;;;;32.50;12.90;;;6.70;1.00;;;;;;5083520;28;20324;-76